Terminal Aerodrome Forecast
Issued by NWS Pueblo, CO

Home | Current Version | Previous Version | Text Only | Print | Product List | Glossary On
Versions: 1 2 3 4 5 6 7 8 9 10 11 12 13 14 15 16 17 18 19 20 21 22 23 24 25 26 27 28 29
000
FTUS45 KPUB 080912 AAA
TAFCOS
TAF AMD
KCOS 080912Z 0809/0906 VRB04KT 5SM -SN BR FEW006 BKN012 OVC020
      TEMPO 0809/0812 2SM -SN BR BKN006
     FM081200 VRB04KT 3SM BR VCSH OVC010
     FM081400 VRB06KT 5SM BR OVC015
     FM081800 15008KT P6SM SCT015 BKN025
     FM082000 14006KT P6SM SCT030 BKN040=

USA.gov is the U.S. government's official web portal to all federal, state and local government web resources and services.